Flight Track Log - Related Links

Times and Time Zones

All times are in EST time to prevent confusion due to time zone crossing. See the AVN11 flight status page for this flight to view local times or setup timezone preferences in your user account.

Time Position Orientation Groundspeed Altitude Reporting Facility
EST Latitude Longitude Course Direction KTS MPH feet Rate Location/Type
Wed 04:00:35 AM -33.9409 151.1746 160° South 98 113  Level FlightAware ADS-B (KCLL)
Wed 04:01:09 AM -33.9639 151.1805 168° South 169 194 100 923 Climbing FlightAware ADS-B (YSSY / SYD)
Wed 04:01:27 AM -33.9782 151.1815 176° South 173 199 800 1,941 Climbing FlightAware ADS-B
Wed 04:01:43 AM -33.9917 151.1801 185° South 180 207 1,200 1,435 Climbing FlightAware ADS-B
Wed 04:02:13 AM -34.0197 151.1768 186° South 210 242 1,900 1,915 Climbing FlightAware ADS-B (YSSY / SYD)
Wed 04:02:30 AM -34.0369 151.1788 175° South 216 249 2,700 2,063 Climbing FlightAware ADS-B
Wed 04:02:45 AM -34.0481 151.1841 159° South 225 259 3,000 1,364 Climbing FlightAware ADS-B
Wed 04:02:52 AM -34.0559 151.1935 135° Southeast 231 266 3,200 1,091 Climbing FlightAware ADS-B
Wed 04:03:07 AM -34.0603 151.2057 113° Southeast 253 291 3,400 1,029 Climbing FlightAware ADS-B
Wed 04:03:27 AM -34.0668 151.2420 102° East 281 323 3,800 1,000 Climbing FlightAware ADS-B
Wed 04:03:31 AM -34.0679 151.2486 102° East 284 327 3,800 1,429 Level FlightAware ADS-B (KCLL)
Wed 04:03:48 AM -34.0717 151.2715 101° East 296 341 4,300 3,000 Climbing FlightAware ADS-B
Wed 04:03:57 AM -34.0715 151.2907 89° East 304 350 5,100 2,400 Climbing FlightAware ADS-B
Wed 04:04:08 AM -34.0656 151.3074 67° East 307 353 5,100 1,355 Level FlightAware ADS-B
Wed 04:04:28 AM -34.0461 151.3339 48° Northeast 318 366 5,800 2,538 Climbing FlightAware ADS-B
Wed 04:04:34 AM -34.0409 151.3414 50° Northeast 319 367 6,200 4,200 Climbing FlightAware ADS-B
Wed 04:04:38 AM -34.0330 151.3529 50° Northeast 321 369 6,500 2,077 Climbing FlightAware ADS-B (YPLB)
Wed 04:05:00 AM -34.0166 151.3775 51° Northeast 326 375 7,100 2,195 Climbing FlightAware ADS-B (YRAY)
Wed 04:05:19 AM -33.9978 151.4059 52° Northeast 331 381 8,000 2,512 Climbing FlightAware ADS-B (YRAY)
Wed 04:05:43 AM -33.9779 151.4363 52° Northeast 339 390 8,900 2,455 Climbing FlightAware ADS-B
Wed 04:06:03 AM -33.9569 151.4680 51° Northeast 344 396 9,800 2,793 Climbing FlightAware ADS-B
Wed 04:06:41 AM -33.9172 151.5276 51° Northeast 349 402 11,600 2,873 Climbing FlightAware ADS-B
Wed 04:07:14 AM -33.8834 151.5780 51° Northeast 349 402 13,200 2,909 Climbing FlightAware ADS-B (KCLL)
Wed 04:07:47 AM -33.8505 151.6270 51° Northeast 358 412 14,800 2,906 Climbing FlightAware ADS-B
Wed 04:08:18 AM -33.8168 151.6772 51° Northeast 365 420 16,300 2,667 Climbing FlightAware ADS-B (KCLL)
Wed 04:08:59 AM -33.7800 151.7318 51° Northeast 377 434 18,000 2,634 Climbing FlightAware ADS-B
Wed 04:09:40 AM -33.7179 151.8237 51° Northeast 389 448 19,900 2,700 Climbing FlightAware ADS-B (YPLB)
Wed 04:09:59 AM -33.6949 151.8575 51° Northeast 393 452 20,700 1,636 Climbing FlightAware ADS-B (YPLB)
Wed 04:10:02 AM -33.7018 151.8474 231° Southwest 388 447 20,500 2,100 Descending FlightAware ADS-B (KCLL)
Wed 04:10:39 AM -33.6497 151.9247 231° Southwest 402 463 22,100 2,550 Climbing FlightAware ADS-B (YPLB)
Wed 04:10:42 AM -33.6556 151.9158 231° Southwest 390 449 22,200 1,773 Climbing Aus ATC (RADAR)
Wed 04:11:23 AM -33.6132 151.9787 51° Northeast 411 473 23,400 2,026 Climbing FlightAware ADS-B
Wed 04:11:59 AM -33.5532 152.0675 51° Northeast 420 483 24,800 2,341 Climbing FlightAware ADS-B (YPLB)
Wed 04:12:04 AM -33.5568 152.0629 51° Northeast 417 480 25,000 1,371 Climbing Aus ATC (RADAR)
Wed 04:12:34 AM -33.5213 152.1146 51° Northeast 427 491 25,600 1,400 Climbing FlightAware ADS-B
Wed 04:13:04 AM -33.4832 152.1709 51° Northeast 435 501 26,400 1,588 Climbing FlightAware ADS-B (KCLL)
Wed 04:13:42 AM -33.4232 152.2590 51° Northeast 449 517 27,400 1,462 Climbing FlightAware ADS-B (YPLB)
Wed 04:14:22 AM -33.3704 152.3366 51° Northeast 459 528 28,300 1,636 Climbing FlightAware ADS-B (YPLB)
Wed 04:14:26 AM -33.3750 152.3303 51° Northeast 446 513 28,600 1,500 Climbing Aus ATC (RADAR)
Wed 04:15:02 AM -33.3155 152.4171 51° Northeast 467 537 29,300 980 Climbing FlightAware ADS-B (YPLB)
Wed 04:15:15 AM -33.3097 152.4256 51° Northeast 462 532 29,400 1,404 Climbing FlightAware ADS-B (KCLL)
Wed 04:15:49 AM -33.2621 152.4960 51° Northeast 471 542 30,400 1,435 Climbing Aus ATC (RADAR)
Wed 04:16:01 AM -33.2344 152.5360 51° Northeast 477 549 30,500 1,111 Climbing FlightAware ADS-B (YPLB)
Wed 04:16:43 AM -33.1755 152.6226 51° Northeast 483 556 31,400 1,135 Climbing FlightAware ADS-B (YPLB)
Wed 04:17:15 AM -33.1413 152.6724 51° Northeast 486 559 31,900 1,275 Climbing FlightAware ADS-B (KCLL)
Wed 04:18:03 AM -33.0639 152.7842 50° Northeast 486 559 33,100 1,364 Climbing FlightAware ADS-B (YPLB)
Wed 04:18:43 AM -33.0034 152.8714 50° Northeast 490 564 33,900 1,435 Climbing FlightAware ADS-B (YPLB)
Wed 04:18:49 AM -33.0070 152.8669 50° Northeast 487 560 34,200 1,171 Climbing Aus ATC (RADAR)
Wed 04:19:24 AM -32.9553 152.9402 50° Northeast 493 567 34,700 667 Climbing Aus ATC (RADAR)
Wed 04:19:25 AM -32.9420 152.9598 50° Northeast 494 568 34,600 429 Descending FlightAware ADS-B (YPLB)
Wed 04:20:06 AM -32.8846 153.0425 50° Northeast 496 571 35,000 462 Climbing FlightAware ADS-B (YPLB)
Wed 04:20:17 AM -32.8787 153.0511 50° Northeast 491 565 35,000 600 Level FlightAware ADS-B (KCLL)
Wed 04:20:36 AM -32.8516 153.0907 50° Northeast 484 557 35,300 409 Climbing Aus ATC (RADAR)
Wed 04:21:01 AM -32.8154 153.1429 50° Northeast 481 554 35,300 -600 Level Aus ATC (RADAR)
Wed 04:21:06 AM -32.7960 153.1704 50° Northeast 495 570 35,000  Descending FlightAware ADS-B (YPLB)
Wed 04:21:36 AM -32.7646 153.2165 50° Northeast 482 555 35,300  Climbing Aus ATC (RADAR)
Wed 04:21:45 AM -32.7396 153.2519 50° Northeast 495 570 35,000  Descending FlightAware ADS-B (YPLB)
Wed 04:22:19 AM -32.7011 153.3071 50° Northeast 495 570 35,300  Climbing Aus ATC (RADAR)
Wed 04:22:24 AM -32.6824 153.3339 50° Northeast 495 570 35,000  Descending FlightAware ADS-B (YPLB)
Wed 04:22:54 AM -32.6500 153.3799 50° Northeast 495 570 35,300  Climbing Aus ATC (RADAR)
Wed 04:23:04 AM -32.6226 153.4188 50° Northeast 495 570 35,000 -360 Descending FlightAware ADS-B (YPLB)
Wed 04:23:44 AM -32.5646 153.5009 50° Northeast 497 572 35,000  Level FlightAware ADS-B (YPLB)
Wed 04:24:24 AM -32.5067 153.5828 50° Northeast 498 573 35,000  Level FlightAware ADS-B (YPLB)
Wed 04:25:06 AM -32.4554 153.6551 50° Northeast 501 577 35,000  Level FlightAware ADS-B (KCLL)
Wed 04:25:39 AM -32.3961 153.7394 50° Northeast 502 578 35,000 353 Level FlightAware ADS-B (YPLB)
Wed 04:25:40 AM -32.4046 153.7280 50° Northeast 485 558 35,200  Climbing Aus ATC (RADAR)
Wed 04:26:26 AM -32.3258 153.8388 50° Northeast 504 580 35,000 -140 Descending FlightAware ADS-B (YPLB)
Wed 04:27:06 AM -32.2653 153.9239 50° Northeast 506 582 35,000  Level FlightAware ADS-B (YPLB)
Wed 04:27:40 AM -32.2156 153.9937 50° Northeast 506 582 35,000  Level FlightAware ADS-B (YPLB)
Wed 04:28:24 AM -32.1478 154.0887 50° Northeast 506 582 35,000  Level FlightAware ADS-B (YPLB)
Wed 04:29:00 AM -32.0971 154.1596 50° Northeast 506 582 35,000 273 Level FlightAware ADS-B (YPLB)
Wed 04:29:08 AM -32.0920 154.1670 50° Northeast 506 582 35,200 279 Climbing Aus ATC (RADAR)
Wed 04:29:43 AM -32.0394 154.2410 50° Northeast 506 582 35,200 -333 Level Aus ATC (RADAR)
Wed 04:29:44 AM -32.0267 154.2580 50° Northeast 506 582 35,000 -293 Descending FlightAware ADS-B (YPLB)
Wed 04:30:24 AM -31.9656 154.3429 50° Northeast 505 581 35,000 228 Level FlightAware ADS-B (YPLB)
Wed 04:31:03 AM -31.9189 154.4081 50° Northeast 504 580 35,300  Climbing Aus ATC (RADAR)
Wed 04:31:06 AM -31.9029 154.4300 50° Northeast 506 582 35,000  Descending FlightAware ADS-B (YPLB)
Wed 04:31:38 AM -31.8657 154.4822 50° Northeast 510 587 35,300  Climbing Aus ATC (RADAR)
Wed 04:31:44 AM -31.8450 154.5104 50° Northeast 506 582 35,000  Descending FlightAware ADS-B (YPLB)
Wed 04:32:20 AM -31.8027 154.5692 50° Northeast 489 563 35,300  Climbing Aus ATC (RADAR)
Wed 04:32:25 AM -31.7839 154.5948 50° Northeast 506 582 35,000 -171 Descending FlightAware ADS-B (YPLB)
Wed 04:32:55 AM -31.7494 154.6426 50° Northeast 488 562 35,200  Climbing Aus ATC (RADAR)
Wed 04:33:26 AM -31.6912 154.7225 49° Northeast 507 583 35,000  Descending FlightAware ADS-B (YPLB)
Wed 04:33:30 AM -31.6967 154.7150 49° Northeast 487 560 35,200  Climbing Aus ATC (RADAR)
Wed 04:33:59 AM -31.6605 154.7646 49° Northeast 508 585 35,000  Descending FlightAware ADS-B (YPLB)
Wed 04:34:03 AM -31.6461 154.7850 49° Northeast 507 583 35,200 462 Climbing Aus ATC (RADAR)
Wed 04:34:38 AM -31.5924 154.8584 49° Northeast 511 588 35,300 -146 Climbing Aus ATC (RADAR)
Wed 04:35:25 AM -31.5087 154.9728 49° Northeast 510 587 35,000  Descending FlightAware ADS-B (YPLB)
Wed 04:35:57 AM -31.4702 155.0258 49° Northeast 508 585 35,300 211 Climbing Aus ATC (RADAR)
Wed 04:36:22 AM -31.4317 155.0783 49° Northeast 510 587 35,200  Descending Aus ATC (RADAR)
Wed 04:36:57 AM -31.3777 155.1517 49° Northeast 510 587 35,300 78 Climbing Aus ATC (RADAR)
Wed 04:37:39 AM -31.3123 155.2397 49° Northeast 497 572 35,300  Level Aus ATC (RADAR)
Wed 04:38:14 AM -31.2587 155.3132 50° Northeast 494 568 35,300 -88 Level Aus ATC (RADAR)
Wed 04:38:47 AM -31.2074 155.3833 49° Northeast 513 590 35,200  Descending Aus ATC (RADAR)
Wed 04:39:19 AM -31.1575 155.4497 49° Northeast 495 570 35,300 90 Climbing Aus ATC (RADAR)
Wed 04:39:54 AM -31.1031 155.5230 49° Northeast 494 568 35,300 -67 Level Aus ATC (RADAR)
Wed 04:40:49 AM -31.0177 155.6380 49° Northeast 492 566 35,200  Descending Aus ATC (RADAR)
Wed 04:41:14 AM -30.9782 155.6897 48° Northeast 493 567 35,300 100 Climbing Aus ATC (RADAR)
Wed 04:41:49 AM -30.9253 155.7611 49° Northeast 485 558 35,300  Level Aus ATC (RADAR)
Wed 04:42:34 AM -30.8573 155.8521 49° Northeast 480 552 35,300 -225 Level Aus ATC (RADAR)
Wed 04:43:09 AM -30.8044 155.9227 49° Northeast 477 549 35,000  Descending Aus ATC (RADAR)
Wed 04:43:42 AM -30.7550 155.9897 49° Northeast 495 570 35,300 286 Climbing Aus ATC (RADAR)
Wed 04:44:12 AM -30.7097 156.0498 49° Northeast 494 568 35,300 -92 Level Aus ATC (RADAR)
Wed 04:44:47 AM -30.6568 156.1197 49° Northeast 494 568 35,200  Descending Aus ATC (RADAR)
Wed 04:45:42 AM -30.5741 156.2292 49° Northeast 492 566 35,300 80 Climbing Aus ATC (RADAR)
Wed 04:46:02 AM -30.5436 156.2691 48° Northeast 492 566 35,300 -136 Level Aus ATC (RADAR)
Wed 04:46:26 AM -30.5059 156.3188 49° Northeast 493 567 35,200  Descending Aus ATC (RADAR)
Wed 04:47:01 AM -30.4524 156.3886 48° Northeast 494 568 35,300  Climbing Aus ATC (RADAR)
Wed 04:47:46 AM -30.3837 156.4786 48° Northeast 496 571 35,200 -75 Descending Aus ATC (RADAR)
Wed 04:48:21 AM -30.3304 156.5487 49° Northeast 497 572 35,200  Level Aus ATC (RADAR)
Wed 04:48:51 AM -30.2844 156.6087 48° Northeast 497 572 35,200  Level Aus ATC (RADAR)
Wed 04:49:26 AM -30.2303 156.6788 48° Northeast 499 574 35,200  Level Aus ATC (RADAR)
Wed 04:50:01 AM -30.1765 156.7490 48° Northeast 499 574 35,200  Level Aus ATC (RADAR)
Wed 04:51:01 AM -30.0842 156.8689 48° Northeast 498 573 35,200  Level Aus ATC (RADAR)
Wed 04:51:26 AM -30.0460 156.9185 48° Northeast 496 571 35,200  Level Aus ATC (RADAR)
Wed 04:52:01 AM -29.9925 156.9879 48° Northeast 495 570 35,200  Level Aus ATC (RADAR)
Wed 04:52:41 AM -29.9316 157.0665 48° Northeast 493 567 35,200  Level Aus ATC (RADAR)
Wed 04:53:16 AM -29.8780 157.1351 48° Northeast 492 566 35,200  Level Aus ATC (RADAR)
Wed 04:53:46 AM -29.8337 157.1933 49° Northeast 488 562 35,200  Level Aus ATC (RADAR)
Wed 04:54:21 AM -29.7791 157.2627 48° Northeast 492 566 35,200  Level Aus ATC (RADAR)
Wed 04:54:56 AM -29.7247 157.3319 48° Northeast 495 570 35,200  Level Aus ATC (RADAR)
Wed 04:55:51 AM -29.6396 157.4407 48° Northeast 497 572 35,200  Level Aus ATC (RADAR)
Wed 04:56:11 AM -29.6092 157.4802 48° Northeast 495 570 35,200  Level Aus ATC (RADAR)
Wed 04:56:36 AM -29.5705 157.5297 48° Northeast 496 571 35,200  Level Aus ATC (RADAR)
Wed 04:57:11 AM -29.5154 157.5991 48° Northeast 499 574 35,200  Level Aus ATC (RADAR)
Wed 04:57:50 AM -29.4523 157.6786 48° Northeast 502 578 35,200  Level Aus ATC (RADAR)
Wed 04:58:25 AM -29.3979 157.7480 48° Northeast 500 575 35,200  Level Aus ATC (RADAR)
Wed 04:59:00 AM -29.3425 157.8180 48° Northeast 502 578 35,200  Level Aus ATC (RADAR)
Wed 04:59:30 AM -29.2963 157.8770 48° Northeast 500 575 35,200  Level Aus ATC (RADAR)
Wed 05:00:05 AM -29.2430 157.9458 48° Northeast 495 570 35,200  Level Aus ATC (RADAR)
Wed 05:01:11 AM -29.1406 158.0729 47° Northeast 496 571 35,200  Level Aus ATC (RADAR)
Wed 05:01:35 AM -29.1007 158.1220 47° Northeast 498 573 35,200  Level Aus ATC (RADAR)
Wed 05:02:10 AM -29.0449 158.1901 47° Northeast 499 574 35,200  Level Aus ATC (RADAR)
Wed 05:02:15 AM -29.0371 158.1994 46° Northeast 499 574 35,200  Level Aus ATC (RADAR)
Wed 05:05:39 AM -28.6955 158.6266 47° Northeast 35,000 -59 Descending Aus ATC (Calculated)
Wed 05:07:00 AM -28.5808 158.7690 47° Northeast  Level FlightAware Approximate
Wed 05:07:45 AM -28.4958 158.8742 360° North 35,000  Level Aus ATC (Calculated)
Wed 05:07:52 AM -28.4958 158.8742 47° Northeast 35,000  Level Aus ATC (Calculated)
Wed 05:08:41 AM -28.4355 158.9487 47° Northeast 35,000  Level Aus ATC (Calculated)
Wed 05:09:00 AM -28.3993 158.9933 47° Northeast  Level FlightAware Approximate
Wed 05:10:00 AM -28.3239 159.0862 47° Northeast  Level FlightAware Approximate
Wed 05:10:40 AM -28.2762 159.1442 48° Northeast 35,000  Level Aus ATC (Calculated)
Wed 05:11:00 AM -28.2391 159.1903 47° Northeast  Level FlightAware Approximate
Wed 05:12:00 AM -28.1644 159.2844 48° Northeast  Level FlightAware Approximate
Wed 05:13:00 AM -28.2483 159.1793 228° Southwest  Level FlightAware Approximate
Wed 05:14:00 AM -28.3320 159.0740 228° Southwest  Level FlightAware Approximate
Wed 05:14:05 AM -27.9718 159.5153 47° Northeast 35,000  Level Aus ATC (Calculated)
Wed 05:14:53 AM -27.8796 159.6270 47° Northeast 35,000  Level Aus ATC (Calculated)
Wed 05:15:34 AM -27.8350 159.6810 227° Southwest 35,000  Level Aus ATC (Calculated)
Wed 05:16:00 AM -27.9755 159.5110 227° Southwest  Level FlightAware Approximate
Wed 05:16:21 AM -27.7469 159.7872 40° Northeast 35,000  Level Aus ATC (Calculated)
Wed 05:18:00 AM -27.5885 159.9361 47° Northeast  Level Estimated
Wed 05:19:00 AM -27.5036 160.0394 47° Northeast  Level FlightAware Approximate
Wed 05:20:00 AM -27.4185 160.1425 47° Northeast  Level FlightAware Approximate
Wed 05:20:34 AM -27.3623 160.2484 47° Northeast 35,000  Level Aus ATC (Calculated)
Wed 05:21:29 AM -27.2887 160.3361 47° Northeast 35,000  Level Aus ATC (Calculated)
Wed 05:23:00 AM -27.1584 160.4908 47° Northeast  Level FlightAware Approximate
Wed 05:23:26 AM -27.1102 160.5480 47° Northeast 35,000  Level Aus ATC (Calculated)
Wed 05:24:29 AM -26.9783 160.7039 46° Northeast 35,000  Level Aus ATC (Calculated)
Wed 05:25:26 AM -26.9164 160.7768 46° Northeast 35,000  Level Aus ATC (Calculated)
Wed 05:26:00 AM -26.8476 160.8578 46° Northeast  Level FlightAware Approximate
Wed 05:27:00 AM -26.7813 160.9356 46° Northeast  Level FlightAware Approximate
Wed 05:27:26 AM -26.7363 160.9884 46° Northeast 35,000  Level Aus ATC (Calculated)
Wed 05:29:00 AM -26.6010 161.1466 46° Northeast  Level FlightAware Approximate
Wed 05:29:00 AM -26.5729 161.1795 46° Northeast 35,000  Level Aus ATC (Calculated)
Wed 05:30:00 AM -26.4864 161.2803 46° Northeast  Level FlightAware Approximate
Wed 05:31:00 AM -26.3999 161.3809 46° Northeast  Level FlightAware Approximate
Wed 05:31:00 AM -26.3750 161.4097 46° Northeast 35,000  Level Aus ATC (Calculated)
Wed 05:32:00 AM -26.2884 161.5102 46° Northeast  Level FlightAware Approximate
Wed 05:33:00 AM -26.2017 161.6104 46° Northeast  Level FlightAware Approximate
Wed 05:34:00 AM -26.1149 161.7106 46° Northeast  Level FlightAware Approximate
Wed 05:35:00 AM -26.0281 161.8105 46° Northeast  Level FlightAware Approximate
Wed 05:36:00 AM -25.9412 161.9104 46° Northeast  Level FlightAware Approximate
Wed 05:37:00 AM -25.8542 162.0101 46° Northeast  Level FlightAware Approximate
Wed 05:38:00 AM -25.7672 162.1096 46° Northeast  Level FlightAware Approximate
Wed 05:39:00 AM -25.6801 162.2090 46° Northeast  Level FlightAware Approximate
Wed 05:40:00 AM -25.5929 162.3082 46° Northeast  Level FlightAware Approximate
Wed 05:41:00 AM -25.5057 162.4073 46° Northeast  Level FlightAware Approximate
Wed 05:41:00 AM -25.3740 162.5564 46° Northeast 35,000  Level Aus ATC (Calculated)
Wed 05:42:00 AM -25.2866 162.6552 46° Northeast  Level FlightAware Approximate
Wed 05:43:00 AM -25.1991 162.7538 46° Northeast  Level FlightAware Approximate
Wed 05:44:00 AM -25.1116 162.8522 46° Northeast  Level FlightAware Approximate
Wed 05:45:00 AM -25.0240 162.9505 45° Northeast  Level FlightAware Approximate
Wed 05:46:00 AM -24.9363 163.0487 45° Northeast  Level FlightAware Approximate
Wed 05:47:00 AM -25.0240 162.9505 225° Southwest  Level FlightAware Approximate
Wed 05:48:00 AM -24.9363 163.0487 45° Northeast  Level FlightAware Approximate
Wed 05:49:00 AM -25.0240 162.9505 225° Southwest  Level FlightAware Approximate
Wed 05:50:00 AM -24.9363 163.0487 45° Northeast  Level FlightAware Approximate
Wed 05:51:00 AM -25.0240 162.9505 225° Southwest  Level FlightAware Approximate
Wed 05:52:00 AM -24.9363 163.0487 45° Northeast  Level FlightAware Approximate
Wed 05:53:00 AM -25.0240 162.9505 225° Southwest  Level FlightAware Approximate
Wed 05:54:00 AM -24.9363 163.0487 45° Northeast  Level FlightAware Approximate
Wed 05:55:00 AM -25.0240 162.9505 225° Southwest  Level FlightAware Approximate
Wed 05:56:00 AM -24.9363 163.0487 45° Northeast  Level FlightAware Approximate
Wed 05:57:00 AM -25.0240 162.9505 225° Southwest  Level FlightAware Approximate
Wed 05:58:00 AM -24.9221 163.0302 45° Northeast  Level Estimated
Wed 05:59:00 AM -24.8352 163.1292 46° Northeast  Level FlightAware Approximate
Wed 06:00:00 AM -24.7482 163.2280 46° Northeast  Level FlightAware Approximate
Wed 06:01:00 AM -24.6612 163.3266 46° Northeast  Level FlightAware Approximate
Wed 06:02:00 AM -24.5741 163.4251 46° Northeast  Level FlightAware Approximate
Wed 06:03:00 AM -24.4870 163.5235 46° Northeast  Level FlightAware Approximate
Wed 06:04:00 AM -24.3998 163.6218 46° Northeast  Level FlightAware Approximate
Wed 06:05:00 AM -24.3125 163.7199 46° Northeast  Level FlightAware Approximate
Wed 06:06:00 AM -24.2252 163.8179 46° Northeast  Level FlightAware Approximate
Wed 06:07:00 AM -24.1378 163.9157 46° Northeast  Level FlightAware Approximate
Wed 06:08:00 AM -24.0504 164.0134 46° Northeast  Level FlightAware Approximate
Wed 06:09:00 AM -23.9628 164.1110 46° Northeast  Level FlightAware Approximate
Wed 06:10:00 AM -23.8752 164.2085 46° Northeast  Level FlightAware Approximate
Wed 06:11:00 AM -23.7876 164.3058 45° Northeast  Level FlightAware Approximate
Wed 06:12:00 AM -23.6999 164.4030 45° Northeast  Level FlightAware Approximate
Wed 06:13:00 AM -23.6122 164.5000 45° Northeast  Level FlightAware Approximate
Wed 06:14:00 AM -23.5243 164.5970 45° Northeast  Level FlightAware Approximate
Wed 06:15:00 AM -23.4179 164.6682 45° Northeast  Level Estimated
Wed 06:16:00 AM -23.3303 164.7653 46° Northeast  Level FlightAware Approximate
Wed 06:17:00 AM -23.2427 164.8622 45° Northeast  Level FlightAware Approximate
Wed 06:18:00 AM -23.1550 164.9591 45° Northeast  Level FlightAware Approximate
Wed 06:19:00 AM -23.0673 165.0558 45° Northeast  Level FlightAware Approximate
Wed 06:20:00 AM -22.9795 165.1523 45° Northeast  Level FlightAware Approximate
Wed 06:21:00 AM -22.8917 165.2488 45° Northeast  Level FlightAware Approximate
Wed 06:22:00 AM -22.8038 165.3451 45° Northeast  Level FlightAware Approximate
Wed 06:23:00 AM -22.7158 165.4413 45° Northeast  Level FlightAware Approximate
Wed 06:24:00 AM -22.6278 165.5373 45° Northeast  Level FlightAware Approximate
Wed 06:25:00 AM -22.5397 165.6333 45° Northeast  Level FlightAware Approximate
Wed 06:26:00 AM -22.4516 165.7291 45° Northeast  Level FlightAware Approximate
Wed 06:27:00 AM -22.3634 165.8248 45° Northeast  Level FlightAware Approximate
Wed 06:28:00 AM -22.2752 165.9204 45° Northeast  Level FlightAware Approximate
Wed 06:29:00 AM -22.1869 166.0159 45° Northeast  Level FlightAware Approximate
Wed 06:30:00 AM -22.0985 166.1112 45° Northeast  Level FlightAware Approximate
Wed 06:31:00 AM -21.9859 166.1695 24° Northeast  Level Estimated
Wed 06:32:00 AM -21.8726 166.2263 25° Northeast  Level FlightAware Approximate
Wed 06:33:00 AM -21.7593 166.2829 25° Northeast  Level FlightAware Approximate
Wed 06:34:00 AM -21.6460 166.3395 25° Northeast  Level FlightAware Approximate
Wed 06:35:00 AM -21.5326 166.3960 25° Northeast  Level FlightAware Approximate
Wed 06:36:00 AM -21.4193 166.4524 25° Northeast  Level FlightAware Approximate
Wed 06:37:00 AM -21.3059 166.5087 25° Northeast  Level FlightAware Approximate
Wed 06:38:00 AM -21.1925 166.5650 25° Northeast  Level FlightAware Approximate
Wed 06:39:00 AM -21.0791 166.6211 25° Northeast  Level FlightAware Approximate
Wed 06:40:00 AM -20.9657 166.6772 25° Northeast  Level FlightAware Approximate
Wed 06:41:00 AM -20.8522 166.7332 25° Northeast  Level FlightAware Approximate
Wed 06:42:00 AM -20.7388 166.7890 25° Northeast  Level FlightAware Approximate
Wed 06:43:00 AM -20.6253 166.8449 25° Northeast  Level FlightAware Approximate
Wed 06:44:00 AM -20.5117 166.9006 25° Northeast  Level FlightAware Approximate
Wed 06:45:00 AM -20.3982 166.9562 25° Northeast  Level FlightAware Approximate
Wed 06:46:00 AM -20.2847 167.0118 25° Northeast  Level FlightAware Approximate
Wed 06:47:00 AM -20.1711 167.0673 25° Northeast  Level FlightAware Approximate
Wed 06:48:00 AM -20.0576 167.1227 25° Northeast  Level FlightAware Approximate
Wed 06:49:00 AM -19.9440 167.1780 25° Northeast  Level FlightAware Approximate
Wed 06:50:00 AM -19.8304 167.2332 25° Northeast  Level FlightAware Approximate
Wed 06:51:00 AM -19.7167 167.2884 25° Northeast  Level FlightAware Approximate
Wed 06:52:00 AM -19.6031 167.3435 25° Northeast  Level FlightAware Approximate
Wed 06:53:00 AM -19.4909 167.4017 24° Northeast  Level Estimated
Wed 06:54:00 AM -19.3763 167.4547 24° Northeast  Level FlightAware Approximate
Wed 06:55:00 AM -19.2618 167.5075 24° Northeast  Level FlightAware Approximate
Wed 06:56:00 AM -19.1473 167.5603 24° Northeast  Level FlightAware Approximate
Wed 06:57:00 AM -19.0327 167.6131 24° Northeast  Level FlightAware Approximate
Wed 06:58:00 AM -18.9182 167.6657 23° Northeast  Level FlightAware Approximate
Wed 06:59:00 AM -18.8036 167.7183 23° Northeast  Level FlightAware Approximate
Wed 07:00:00 AM -18.6890 167.7708 23° Northeast  Level FlightAware Approximate
Wed 07:01:00 AM -18.5785 167.8324 24° Northeast  Level Estimated
Wed 07:02:00 AM -18.4637 167.8842 23° Northeast  Level FlightAware Approximate
Wed 07:03:00 AM -18.3488 167.9360 23° Northeast  Level FlightAware Approximate
Wed 07:04:00 AM -18.2340 167.9877 23° Northeast  Level FlightAware Approximate
Wed 07:05:00 AM -18.1191 168.0393 23° Northeast  Level FlightAware Approximate
Wed 07:06:00 AM -18.0042 168.0909 23° Northeast  Level FlightAware Approximate
Wed 07:07:00 AM -17.8892 168.1424 23° Northeast  Level FlightAware Approximate
Wed 07:08:00 AM -17.7743 168.1938 23° Northeast  Level FlightAware Approximate
Wed 07:09:00 AM -17.6621 168.2439 24° Northeast  Level FlightAware Approximate
Wed 07:10:00 AM -17.6993 168.3198 24° Northeast  Level Estimated
Wed 07:11:00 AM -17.6993 168.3198 24° Northeast  Level Estimated
Wed 07:12:00 AM -17.6993 168.3198 24° Northeast  Level Estimated
Wed 07:13:00 AM -17.6993 168.3198 24° Northeast  Level Estimated
Wed 07:14:00 AM -17.6993 168.3198 24° Northeast  Level Estimated
Wed 07:15:00 AM -17.6993 168.3198 24° Northeast  Level Estimated

Login

Don't have an account? Register now (free) for customized features, flight alerts, and more!